Wilson Maas — 8PSZ — position and weather

sailwx.info

Track history (hours):
 
Tides and Currents Weather Stations Pressure Air Temp Water Temp Dewpoint Dewpoint Depression Visibility Wind Speed Wind Dir Waves Ship Positions

Wilson Maas

Last reported at 2016-Dec-03 21:34 UTC. Time now 2016-Dec-03 21:46 UTC.
Position N 51°54' E 004°28'.

Length 78 m; draft 3.8 m.

Type: Cargo ship. MMSI: 314217000.

Date/timePositionNaut miles runAvg speedWind from/ knotsBaromVisibWave heightAir tempDewpointWater temp
2016-Dec-03 21:34N 51°54' E 004°28'0 0.0
2016-Dec-03 20:34N 51°54' E 004°28'0 0.0
2016-Dec-03 19:34N 51°54' E 004°28'0 0.0
2016-Dec-03 18:31N 51°54' E 004°28'0 0.0
2016-Dec-03 17:34N 51°54' E 004°28'0 0.0
2016-Dec-03 16:34N 51°54' E 004°28'0 0.0
2016-Dec-03 15:31N 51°54' E 004°28'0 0.0
2016-Dec-03 14:31N 51°54' E 004°28'0 0.0
2016-Dec-03 13:34N 51°54' E 004°28'0 0.0
2016-Dec-03 12:31N 51°54' E 004°28'0 0.0
2016-Dec-03 11:34N 51°54' E 004°28'0 0.0
2016-Dec-03 10:34N 51°54' E 004°28'0 0.0
2016-Dec-03 09:31N 51°54' E 004°28'0 0.0
2016-Dec-03 08:34N 51°54' E 004°28'0 0.0
2016-Dec-03 07:34N 51°54' E 004°28'0 0.0
2016-Dec-03 06:31N 51°54' E 004°28'0 0.0
2016-Dec-03 05:31N 51°54' E 004°28'0 0.0
2016-Dec-03 04:31N 51°54' E 004°28'0 0.0
2016-Dec-03 03:34N 51°54' E 004°28'0 0.0
2016-Dec-03 02:34N 51°54' E 004°28'0 0.0
2016-Dec-03 01:34N 51°54' E 004°28'0 0.0
2016-Dec-03 00:34N 51°54' E 004°28'0 0.0
2016-Dec-02 23:34N 51°54' E 004°28'0 0.0
2016-Dec-02 22:34N 51°54' E 004°28'0 0.0
2016-Dec-02 21:34N 51°54' E 004°28'0 0.0
2016-Dec-02 20:34N 51°54' E 004°28'0 0.0
2016-Dec-02 19:34N 51°54' E 004°28'0 0.0
2016-Dec-02 18:34N 51°54' E 004°28'0 0.0
2016-Dec-02 17:34N 51°54' E 004°28'0 0.0
2016-Dec-02 16:34N 51°54' E 004°28'0 0.0
2016-Dec-02 15:31N 51°54' E 004°28'0 0.0
2016-Dec-02 14:34N 51°54' E 004°28'0 0.0
2016-Dec-02 13:34N 51°54' E 004°28'0 0.0
2016-Dec-02 12:31N 51°54' E 004°28'0 0.0
2016-Dec-02 11:34N 51°54' E 004°28'0 0.0
2016-Dec-02 10:31N 51°54' E 004°28'0 0.0
2016-Dec-02 09:34N 51°54' E 004°28'0 0.0
2016-Dec-02 08:34N 51°54' E 004°28'0 0.0
2016-Dec-02 07:34N 51°54' E 004°28'0 0.0
2016-Dec-02 06:34N 51°54' E 004°28'0 0.0
2016-Dec-02 05:34N 51°54' E 004°28'465424.7
2016-Dec-02 04:28N 59°39' E 004°39'6 6.9
2016-Dec-02 03:33N 59°45' E 004°39'7 7.3
2016-Dec-02 02:32N 59°53' E 004°37'7 7.6
2016-Dec-02 01:33N 60°00' E 004°37'7 7.0
2016-Dec-02 00:33N 60°07' E 004°36'8 6.7
2016-Dec-01 23:20N 60°15' E 004°35'501490.9
2016-Dec-01 22:19N 51°54' E 004°28'513672.0
2016-Dec-01 21:33N 60°27' E 004°33'7 6.7
2016-Dec-01 20:33N 60°33' E 004°32'7 7.1
2016-Dec-01 19:33N 60°41' E 004°31'7 6.7
2016-Dec-01 18:33N 60°47' E 004°29'533266.7
2016-Dec-01 16:33N 51°54' E 004°25'1 0.1
2016-Dec-01 12:25N 51°55' E 004°25'2 2.0
2016-Dec-01 11:34N 51°54' E 004°22'5 4.8
2016-Dec-01 10:33N 51°55' E 004°14'7 6.7
2016-Dec-01 09:33N 51°59' E 004°06'9 9.0
2016-Dec-01 08:34N 52°00' E 003°51'602600.3
2016-Dec-01 07:33N 62°01' E 004°46'7 6.5
2016-Dec-01 06:33N 62°07' E 004°52'7 7.4
2016-Dec-01 05:33N 62°14' E 004°60'7 6.6
2016-Dec-01 04:33N 62°19' E 005°08'7 6.6
2016-Dec-01 03:33N 62°24' E 005°17'6 6.0
2016-Dec-01 02:33N 62°29' E 005°25'6 5.6
2016-Dec-01 01:33N 62°33' E 005°33'6 6.1
2016-Dec-01 00:33N 62°38' E 005°41'6 6.0
2016-Nov-30 23:33N 62°42' E 005°50'6 5.8
2016-Nov-30 22:33N 62°47' E 005°58'6 5.8
2016-Nov-30 21:33N 62°51' E 006°06'6 5.8
2016-Nov-30 20:33N 62°55' E 006°15'7 6.9
2016-Nov-30 19:33N 63°01' E 006°25'6 6.0
2016-Nov-30 18:33N 63°05' E 006°34'5 5.3
2016-Nov-30 17:33N 63°09' E 006°42'6 6.3
2016-Nov-30 16:33N 63°14' E 006°52'5 5.4
2016-Nov-30 15:33N 63°18' E 006°59'6 6.3
2016-Nov-30 14:32N 63°22' E 007°09'6 5.5
2016-Nov-30 13:32N 63°27' E 007°17'6 6.0
2016-Nov-30 12:33N 63°31' E 007°25'6 6.2
2016-Nov-30 11:33N 63°36' E 007°34'6 6.3
2016-Nov-30 10:33N 63°41' E 007°43'6 5.8
2016-Nov-30 09:33N 63°45' E 007°52'7 6.9
2016-Nov-30 08:32N 63°50' E 008°03'7 6.8
2016-Nov-30 07:33N 63°55' E 008°13'167 6.7
2016-Nov-29 06:33N 66°15' E 011°50'6 6.4
2016-Nov-29 05:34N 66°16' E 012°06'6 6.0
2016-Nov-29 04:33N 66°16' E 012°20'6 5.8
2016-Nov-29 03:33N 66°15' E 012°34'5 5.0
2016-Nov-29 02:33N 66°12' E 012°45'5 5.4
2016-Nov-29 01:33N 66°09' E 012°56'7 6.6
2016-Nov-29 00:32N 66°12' E 013°12'6 6.3
2016-Nov-28 23:33N 66°14' E 013°26'6 6.0
2016-Nov-28 22:33N 66°15' E 013°41'6 6.3
2016-Nov-28 21:32N 66°16' E 013°56'6 5.8
2016-Nov-28 20:33N 66°20' E 014°08'0 0.2
2016-Nov-28 19:33N 66°20' E 014°09'350294.4
2016-Nov-28 18:22N 62°07' E 004°52'8 9.5
2016-Nov-28 17:33N 62°14' E 004°60'10 9.8
2016-Nov-28 16:33N 62°22' E 005°13'9 9.2
2016-Nov-28 15:33N 62°29' E 005°25'9 9.0
2016-Nov-28 14:33N 62°36' E 005°38'9 8.8
2016-Nov-28 13:33N 62°42' E 005°50'305300.8
2016-Nov-28 12:33N 66°20' E 014°09'0 0.0
2016-Nov-28 11:33N 66°20' E 014°09'0 0.0
2016-Nov-28 10:32N 66°20' E 014°09'0 0.0
2016-Nov-28 09:31N 66°20' E 014°09'0 0.0
2016-Nov-28 08:33N 66°20' E 014°09'0 0.0
2016-Nov-28 07:31N 66°20' E 014°09'0 0.0
2016-Nov-28 06:31N 66°20' E 014°09'0 0.0
2016-Nov-28 05:31N 66°20' E 014°09'0 0.0
2016-Nov-28 04:32N 66°20' E 014°09'0 0.0
2016-Nov-28 03:32N 66°20' E 014°09'0 0.0
2016-Nov-28 02:33N 66°20' E 014°09'0 0.0
2016-Nov-28 01:32N 66°20' E 014°09'0 0.0
2016-Nov-28 00:33N 66°20' E 014°09'0 0.0
2016-Nov-27 23:33N 66°20' E 014°09'0 0.0
2016-Nov-27 22:33N 66°20' E 014°09'0 0.0
2016-Nov-27 21:31N 66°20' E 014°09'0 0.0
2016-Nov-27 20:31N 66°20' E 014°09'0 0.0
2016-Nov-27 19:32N 66°20' E 014°09'0 0.0
2016-Nov-27 18:32N 66°20' E 014°09'0 0.0
2016-Nov-27 17:33N 66°20' E 014°09'0 0.0
2016-Nov-27 16:32N 66°20' E 014°09'0 0.0
2016-Nov-27 15:32N 66°20' E 014°09'0 0.0
2016-Nov-27 14:32N 66°20' E 014°09'0 0.0
2016-Nov-27 13:31N 66°20' E 014°09'0 0.0
2016-Nov-27 12:32N 66°20' E 014°09'0 0.0
2016-Nov-27 11:33N 66°20' E 014°09'0 0.0
2016-Nov-27 10:33N 66°20' E 014°09'0 0.0
2016-Nov-27 09:30N 66°20' E 014°09'4951.5
2016-Nov-27 08:33N 66°16' E 012°06'8 8.3
2016-Nov-27 07:33N 66°15' E 012°26'4240.8
2016-Nov-27 06:32N 66°20' E 014°09'0 0.0
2016-Nov-27 05:32N 66°20' E 014°09'0 0.0
2016-Nov-27 04:32N 66°20' E 014°09'0 0.0
2016-Nov-27 03:33N 66°20' E 014°09'0 0.0
2016-Nov-27 02:31N 66°20' E 014°09'0 0.0
2016-Nov-27 01:31N 66°20' E 014°09'0 0.0
2016-Nov-27 00:33N 66°20' E 014°09'0 0.0
2016-Nov-26 23:32N 66°20' E 014°09'0 0.0
2016-Nov-26 22:30N 66°20' E 014°09'0 0.0
2016-Nov-26 21:32N 66°20' E 014°09'0 0.0
2016-Nov-26 20:33N 66°20' E 014°09'0 0.0
2016-Nov-26 19:30N 66°20' E 014°09'0 0.0
2016-Nov-26 18:33N 66°20' E 014°09'0 0.0
2016-Nov-26 17:31N 66°20' E 014°09'0 0.0
2016-Nov-26 16:31N 66°20' E 014°09'0 0.0
2016-Nov-26 15:31N 66°20' E 014°09'0 0.0
2016-Nov-26 14:29N 66°20' E 014°09'0 0.0
2016-Nov-26 13:30N 66°20' E 014°09'0 0.0
2016-Nov-26 12:32N 66°20' E 014°09'0 0.0
2016-Nov-26 11:30N 66°20' E 014°09'0 0.0
2016-Nov-26 10:27N 66°20' E 014°09'0 0.0
2016-Nov-26 09:32N 66°20' E 014°09'0 0.0
2016-Nov-26 08:32N 66°20' E 014°09'0 0.0
2016-Nov-26 07:31N 66°20' E 014°09'0 0.0
2016-Nov-26 06:33N 66°20' E 014°09'0 0.0
2016-Nov-26 05:33N 66°20' E 014°09'0 0.0
2016-Nov-26 04:30N 66°20' E 014°09'0 0.0
2016-Nov-26 03:32N 66°20' E 014°09'0 0.0
2016-Nov-26 02:33N 66°20' E 014°09'0 0.0
2016-Nov-26 01:33N 66°20' E 014°09'0 0.0
2016-Nov-26 00:32N 66°20' E 014°09'0 0.0
2016-Nov-25 23:32N 66°20' E 014°09'0 0.0
2016-Nov-25 22:33N 66°20' E 014°09'0 0.0
2016-Nov-25 21:33N 66°20' E 014°09'0 0.0
2016-Nov-25 20:32N 66°20' E 014°09'0 0.0
2016-Nov-25 19:33N 66°20' E 014°09'0 0.0
2016-Nov-25 18:32N 66°20' E 014°09'0 0.0
2016-Nov-25 17:31N 66°20' E 014°09'0 0.0
2016-Nov-25 16:33N 66°20' E 014°09'38 1.4
2016-Nov-24 14:11N 66°14' E 012°35'1011.0
2016-Nov-24 13:18N 66°17' E 012°12'911.4
2016-Nov-24 12:33N 66°22' E 011°54'1010.3
2016-Nov-24 11:33N 66°31' E 011°44'  
Track history (hours):
 
Tides and Currents Weather Stations Pressure Air Temp Water Temp Dewpoint Dewpoint Depression Visibility Wind Speed Wind Dir Waves Ship Positions

Wilson Maas

Last reported at 2016-Dec-03 21:34 UTC. Time now 2016-Dec-03 21:46 UTC.
Position N 51°54' E 004°28'.

Length 78 m; draft 3.8 m.

Type: Cargo ship. MMSI: 314217000.

Date/timePositionNaut miles runAvg speedWind from/ knotsBaromVisibWave heightAir tempDewpointWater temp
2016-Dec-03 21:34N 51°54' E 004°28'0 0.0
2016-Dec-03 20:34N 51°54' E 004°28'0 0.0
2016-Dec-03 19:34N 51°54' E 004°28'0 0.0
2016-Dec-03 18:31N 51°54' E 004°28'0 0.0
2016-Dec-03 17:34N 51°54' E 004°28'0 0.0
2016-Dec-03 16:34N 51°54' E 004°28'0 0.0
2016-Dec-03 15:31N 51°54' E 004°28'0 0.0
2016-Dec-03 14:31N 51°54' E 004°28'0 0.0
2016-Dec-03 13:34N 51°54' E 004°28'0 0.0
2016-Dec-03 12:31N 51°54' E 004°28'0 0.0
2016-Dec-03 11:34N 51°54' E 004°28'0 0.0
2016-Dec-03 10:34N 51°54' E 004°28'0 0.0
2016-Dec-03 09:31N 51°54' E 004°28'0 0.0
2016-Dec-03 08:34N 51°54' E 004°28'0 0.0
2016-Dec-03 07:34N 51°54' E 004°28'0 0.0
2016-Dec-03 06:31N 51°54' E 004°28'0 0.0
2016-Dec-03 05:31N 51°54' E 004°28'0 0.0
2016-Dec-03 04:31N 51°54' E 004°28'0 0.0
2016-Dec-03 03:34N 51°54' E 004°28'0 0.0
2016-Dec-03 02:34N 51°54' E 004°28'0 0.0
2016-Dec-03 01:34N 51°54' E 004°28'0 0.0
2016-Dec-03 00:34N 51°54' E 004°28'0 0.0
2016-Dec-02 23:34N 51°54' E 004°28'0 0.0
2016-Dec-02 22:34N 51°54' E 004°28'0 0.0
2016-Dec-02 21:34N 51°54' E 004°28'0 0.0
2016-Dec-02 20:34N 51°54' E 004°28'0 0.0
2016-Dec-02 19:34N 51°54' E 004°28'0 0.0
2016-Dec-02 18:34N 51°54' E 004°28'0 0.0
2016-Dec-02 17:34N 51°54' E 004°28'0 0.0
2016-Dec-02 16:34N 51°54' E 004°28'0 0.0
2016-Dec-02 15:31N 51°54' E 004°28'0 0.0
2016-Dec-02 14:34N 51°54' E 004°28'0 0.0
2016-Dec-02 13:34N 51°54' E 004°28'0 0.0
2016-Dec-02 12:31N 51°54' E 004°28'0 0.0
2016-Dec-02 11:34N 51°54' E 004°28'0 0.0
2016-Dec-02 10:31N 51°54' E 004°28'0 0.0
2016-Dec-02 09:34N 51°54' E 004°28'0 0.0
2016-Dec-02 08:34N 51°54' E 004°28'0 0.0
2016-Dec-02 07:34N 51°54' E 004°28'0 0.0
2016-Dec-02 06:34N 51°54' E 004°28'0 0.0
2016-Dec-02 05:34N 51°54' E 004°28'465424.7
2016-Dec-02 04:28N 59°39' E 004°39'6 6.9
2016-Dec-02 03:33N 59°45' E 004°39'7 7.3
2016-Dec-02 02:32N 59°53' E 004°37'7 7.6
2016-Dec-02 01:33N 60°00' E 004°37'7 7.0
2016-Dec-02 00:33N 60°07' E 004°36'8 6.7
2016-Dec-01 23:20N 60°15' E 004°35'501490.9
2016-Dec-01 22:19N 51°54' E 004°28'513672.0
2016-Dec-01 21:33N 60°27' E 004°33'7 6.7
2016-Dec-01 20:33N 60°33' E 004°32'7 7.1
2016-Dec-01 19:33N 60°41' E 004°31'7 6.7
2016-Dec-01 18:33N 60°47' E 004°29'533266.7
2016-Dec-01 16:33N 51°54' E 004°25'1 0.1
2016-Dec-01 12:25N 51°55' E 004°25'2 2.0
2016-Dec-01 11:34N 51°54' E 004°22'5 4.8
2016-Dec-01 10:33N 51°55' E 004°14'7 6.7
2016-Dec-01 09:33N 51°59' E 004°06'9 9.0
2016-Dec-01 08:34N 52°00' E 003°51'602600.3
2016-Dec-01 07:33N 62°01' E 004°46'7 6.5
2016-Dec-01 06:33N 62°07' E 004°52'7 7.4
2016-Dec-01 05:33N 62°14' E 004°60'7 6.6
2016-Dec-01 04:33N 62°19' E 005°08'7 6.6
2016-Dec-01 03:33N 62°24' E 005°17'6 6.0
2016-Dec-01 02:33N 62°29' E 005°25'6 5.6
2016-Dec-01 01:33N 62°33' E 005°33'6 6.1
2016-Dec-01 00:33N 62°38' E 005°41'6 6.0
2016-Nov-30 23:33N 62°42' E 005°50'6 5.8
2016-Nov-30 22:33N 62°47' E 005°58'6 5.8
2016-Nov-30 21:33N 62°51' E 006°06'6 5.8
2016-Nov-30 20:33N 62°55' E 006°15'7 6.9
2016-Nov-30 19:33N 63°01' E 006°25'6 6.0
2016-Nov-30 18:33N 63°05' E 006°34'5 5.3
2016-Nov-30 17:33N 63°09' E 006°42'6 6.3
2016-Nov-30 16:33N 63°14' E 006°52'5 5.4
2016-Nov-30 15:33N 63°18' E 006°59'6 6.3
2016-Nov-30 14:32N 63°22' E 007°09'6 5.5
2016-Nov-30 13:32N 63°27' E 007°17'6 6.0
2016-Nov-30 12:33N 63°31' E 007°25'6 6.2
2016-Nov-30 11:33N 63°36' E 007°34'6 6.3
2016-Nov-30 10:33N 63°41' E 007°43'6 5.8
2016-Nov-30 09:33N 63°45' E 007°52'7 6.9
2016-Nov-30 08:32N 63°50' E 008°03'7 6.8
2016-Nov-30 07:33N 63°55' E 008°13'167 6.7
2016-Nov-29 06:33N 66°15' E 011°50'6 6.4
2016-Nov-29 05:34N 66°16' E 012°06'6 6.0
2016-Nov-29 04:33N 66°16' E 012°20'6 5.8
2016-Nov-29 03:33N 66°15' E 012°34'5 5.0
2016-Nov-29 02:33N 66°12' E 012°45'5 5.4
2016-Nov-29 01:33N 66°09' E 012°56'7 6.6
2016-Nov-29 00:32N 66°12' E 013°12'6 6.3
2016-Nov-28 23:33N 66°14' E 013°26'6 6.0
2016-Nov-28 22:33N 66°15' E 013°41'6 6.3
2016-Nov-28 21:32N 66°16' E 013°56'6 5.8
2016-Nov-28 20:33N 66°20' E 014°08'0 0.2
2016-Nov-28 19:33N 66°20' E 014°09'350294.4
2016-Nov-28 18:22N 62°07' E 004°52'8 9.5
2016-Nov-28 17:33N 62°14' E 004°60'10 9.8
2016-Nov-28 16:33N 62°22' E 005°13'9 9.2
2016-Nov-28 15:33N 62°29' E 005°25'9 9.0
2016-Nov-28 14:33N 62°36' E 005°38'9 8.8
2016-Nov-28 13:33N 62°42' E 005°50'305300.8
2016-Nov-28 12:33N 66°20' E 014°09'0 0.0
2016-Nov-28 11:33N 66°20' E 014°09'0 0.0
2016-Nov-28 10:32N 66°20' E 014°09'0 0.0
2016-Nov-28 09:31N 66°20' E 014°09'0 0.0
2016-Nov-28 08:33N 66°20' E 014°09'0 0.0
2016-Nov-28 07:31N 66°20' E 014°09'0 0.0
2016-Nov-28 06:31N 66°20' E 014°09'0 0.0
2016-Nov-28 05:31N 66°20' E 014°09'0 0.0
2016-Nov-28 04:32N 66°20' E 014°09'0 0.0
2016-Nov-28 03:32N 66°20' E 014°09'0 0.0
2016-Nov-28 02:33N 66°20' E 014°09'0 0.0
2016-Nov-28 01:32N 66°20' E 014°09'0 0.0
2016-Nov-28 00:33N 66°20' E 014°09'0 0.0
2016-Nov-27 23:33N 66°20' E 014°09'0 0.0
2016-Nov-27 22:33N 66°20' E 014°09'0 0.0
2016-Nov-27 21:31N 66°20' E 014°09'0 0.0
2016-Nov-27 20:31N 66°20' E 014°09'0 0.0
2016-Nov-27 19:32N 66°20' E 014°09'0 0.0
2016-Nov-27 18:32N 66°20' E 014°09'0 0.0
2016-Nov-27 17:33N 66°20' E 014°09'0 0.0
2016-Nov-27 16:32N 66°20' E 014°09'0 0.0
2016-Nov-27 15:32N 66°20' E 014°09'0 0.0
2016-Nov-27 14:32N 66°20' E 014°09'0 0.0
2016-Nov-27 13:31N 66°20' E 014°09'0 0.0
2016-Nov-27 12:32N 66°20' E 014°09'0 0.0
2016-Nov-27 11:33N 66°20' E 014°09'0 0.0
2016-Nov-27 10:33N 66°20' E 014°09'0 0.0
2016-Nov-27 09:30N 66°20' E 014°09'4951.5
2016-Nov-27 08:33N 66°16' E 012°06'8 8.3
2016-Nov-27 07:33N 66°15' E 012°26'4240.8
2016-Nov-27 06:32N 66°20' E 014°09'0 0.0
2016-Nov-27 05:32N 66°20' E 014°09'0 0.0
2016-Nov-27 04:32N 66°20' E 014°09'0 0.0
2016-Nov-27 03:33N 66°20' E 014°09'0 0.0
2016-Nov-27 02:31N 66°20' E 014°09'0 0.0
2016-Nov-27 01:31N 66°20' E 014°09'0 0.0
2016-Nov-27 00:33N 66°20' E 014°09'0 0.0
2016-Nov-26 23:32N 66°20' E 014°09'0 0.0
2016-Nov-26 22:30N 66°20' E 014°09'0 0.0
2016-Nov-26 21:32N 66°20' E 014°09'0 0.0
2016-Nov-26 20:33N 66°20' E 014°09'0 0.0
2016-Nov-26 19:30N 66°20' E 014°09'0 0.0
2016-Nov-26 18:33N 66°20' E 014°09'0 0.0
2016-Nov-26 17:31N 66°20' E 014°09'0 0.0
2016-Nov-26 16:31N 66°20' E 014°09'0 0.0
2016-Nov-26 15:31N 66°20' E 014°09'0 0.0
2016-Nov-26 14:29N 66°20' E 014°09'0 0.0
2016-Nov-26 13:30N 66°20' E 014°09'0 0.0
2016-Nov-26 12:32N 66°20' E 014°09'0 0.0
2016-Nov-26 11:30N 66°20' E 014°09'0 0.0
2016-Nov-26 10:27N 66°20' E 014°09'0 0.0
2016-Nov-26 09:32N 66°20' E 014°09'0 0.0
2016-Nov-26 08:32N 66°20' E 014°09'0 0.0
2016-Nov-26 07:31N 66°20' E 014°09'0 0.0
2016-Nov-26 06:33N 66°20' E 014°09'0 0.0
2016-Nov-26 05:33N 66°20' E 014°09'0 0.0
2016-Nov-26 04:30N 66°20' E 014°09'0 0.0
2016-Nov-26 03:32N 66°20' E 014°09'0 0.0
2016-Nov-26 02:33N 66°20' E 014°09'0 0.0
2016-Nov-26 01:33N 66°20' E 014°09'0 0.0
2016-Nov-26 00:32N 66°20' E 014°09'0 0.0
2016-Nov-25 23:32N 66°20' E 014°09'0 0.0
2016-Nov-25 22:33N 66°20' E 014°09'0 0.0
2016-Nov-25 21:33N 66°20' E 014°09'0 0.0
2016-Nov-25 20:32N 66°20' E 014°09'0 0.0
2016-Nov-25 19:33N 66°20' E 014°09'0 0.0
2016-Nov-25 18:32N 66°20' E 014°09'0 0.0
2016-Nov-25 17:31N 66°20' E 014°09'0 0.0
2016-Nov-25 16:33N 66°20' E 014°09'38 1.4
2016-Nov-24 14:11N 66°14' E 012°35'1011.0
2016-Nov-24 13:18N 66°17' E 012°12'911.4
2016-Nov-24 12:33N 66°22' E 011°54'1010.3
2016-Nov-24 11:33N 66°31' E 011°44'  

Dump ship's entire track history